sensor_id;sensor_type;location;lat;lon;timestamp;P1;durP1;ratioP1;P2;durP2;ratioP2
31786;SDS011;18356;52.380;9.820;2022-07-23T00:01:25;10.95;;;6.10;;
31786;SDS011;18356;52.380;9.820;2022-07-23T00:03:52;11.50;;;6.13;;
31786;SDS011;18356;52.380;9.820;2022-07-23T00:06:20;13.45;;;6.22;;
31786;SDS011;18356;52.380;9.820;2022-07-23T00:08:46;15.18;;;7.00;;
31786;SDS011;18356;52.380;9.820;2022-07-23T00:11:12;10.60;;;6.53;;
31786;SDS011;18356;52.380;9.820;2022-07-23T00:13:38;10.23;;;6.45;;
31786;SDS011;18356;52.380;9.820;2022-07-23T00:16:05;10.65;;;6.97;;
31786;SDS011;18356;52.380;9.820;2022-07-23T00:18:31;13.45;;;6.93;;
31786;SDS011;18356;52.380;9.820;2022-07-23T00:20:58;9.93;;;6.00;;
31786;SDS011;18356;52.380;9.820;2022-07-23T00:23:24;14.80;;;7.13;;
31786;SDS011;18356;52.380;9.820;2022-07-23T00:25:51;13.65;;;6.72;;
31786;SDS011;18356;52.380;9.820;2022-07-23T00:28:17;13.10;;;6.95;;
31786;SDS011;18356;52.380;9.820;2022-07-23T00:30:44;12.60;;;6.35;;
31786;SDS011;18356;52.380;9.820;2022-07-23T00:33:13;16.20;;;6.68;;
31786;SDS011;18356;52.380;9.820;2022-07-23T00:35:41;11.60;;;7.15;;
31786;SDS011;18356;52.380;9.820;2022-07-23T00:38:08;15.02;;;7.75;;
31786;SDS011;18356;52.380;9.820;2022-07-23T00:40:36;11.75;;;6.43;;
31786;SDS011;18356;52.380;9.820;2022-07-23T00:43:05;16.25;;;7.15;;
31786;SDS011;18356;52.380;9.820;2022-07-23T00:45:31;10.25;;;6.43;;
31786;SDS011;18356;52.380;9.820;2022-07-23T00:47:57;10.32;;;6.57;;
31786;SDS011;18356;52.380;9.820;2022-07-23T00:50:24;9.77;;;7.35;;
31786;SDS011;18356;52.380;9.820;2022-07-23T00:52:50;14.73;;;7.47;;
31786;SDS011;18356;52.380;9.820;2022-07-23T00:55:17;13.00;;;6.88;;
31786;SDS011;18356;52.380;9.820;2022-07-23T00:57:44;10.20;;;7.07;;
31786;SDS011;18356;52.380;9.820;2022-07-23T01:00:13;10.93;;;7.55;;
31786;SDS011;18356;52.380;9.820;2022-07-23T01:02:41;15.90;;;7.25;;
31786;SDS011;18356;52.380;9.820;2022-07-23T01:05:08;12.35;;;6.95;;
31786;SDS011;18356;52.380;9.820;2022-07-23T01:07:35;13.68;;;7.75;;
31786;SDS011;18356;52.380;9.820;2022-07-23T01:10:02;11.50;;;7.40;;
31786;SDS011;18356;52.380;9.820;2022-07-23T01:12:28;12.00;;;7.30;;
31786;SDS011;18356;52.380;9.820;2022-07-23T01:14:58;11.07;;;7.05;;
31786;SDS011;18356;52.380;9.820;2022-07-23T01:17:24;12.63;;;7.75;;
31786;SDS011;18356;52.380;9.820;2022-07-23T01:19:52;12.90;;;7.63;;
31786;SDS011;18356;52.380;9.820;2022-07-23T01:22:19;10.85;;;7.20;;
31786;SDS011;18356;52.380;9.820;2022-07-23T01:24:45;11.85;;;7.78;;
31786;SDS011;18356;52.380;9.820;2022-07-23T01:27:21;11.95;;;7.55;;
31786;SDS011;18356;52.380;9.820;2022-07-23T01:29:50;12.85;;;7.35;;
31786;SDS011;18356;52.380;9.820;2022-07-23T01:32:16;9.60;;;7.25;;
31786;SDS011;18356;52.380;9.820;2022-07-23T01:34:42;12.13;;;7.57;;
31786;SDS011;18356;52.380;9.820;2022-07-23T01:37:08;12.05;;;7.63;;
31786;SDS011;18356;52.380;9.820;2022-07-23T01:39:41;12.25;;;7.03;;
31786;SDS011;18356;52.380;9.820;2022-07-23T01:42:07;12.55;;;7.43;;
31786;SDS011;18356;52.380;9.820;2022-07-23T01:44:36;13.70;;;7.47;;
31786;SDS011;18356;52.380;9.820;2022-07-23T01:47:05;11.90;;;7.32;;
31786;SDS011;18356;52.380;9.820;2022-07-23T01:49:31;10.55;;;7.55;;
31786;SDS011;18356;52.380;9.820;2022-07-23T01:52:00;12.30;;;7.78;;
31786;SDS011;18356;52.380;9.820;2022-07-23T01:54:31;12.00;;;7.68;;
31786;SDS011;18356;52.380;9.820;2022-07-23T01:56:57;12.68;;;7.80;;
31786;SDS011;18356;52.380;9.820;2022-07-23T01:59:24;12.23;;;8.25;;
31786;SDS011;18356;52.380;9.820;2022-07-23T02:01:50;11.88;;;8.20;;
31786;SDS011;18356;52.380;9.820;2022-07-23T02:04:20;12.98;;;7.50;;
31786;SDS011;18356;52.380;9.820;2022-07-23T02:06:46;13.00;;;7.65;;
31786;SDS011;18356;52.380;9.820;2022-07-23T02:09:13;11.60;;;7.55;;
31786;SDS011;18356;52.380;9.820;2022-07-23T02:11:39;11.80;;;7.32;;
31786;SDS011;18356;52.380;9.820;2022-07-23T02:14:05;15.80;;;8.40;;
31786;SDS011;18356;52.380;9.820;2022-07-23T02:16:32;13.20;;;7.60;;
31786;SDS011;18356;52.380;9.820;2022-07-23T02:19:04;10.43;;;7.70;;
31786;SDS011;18356;52.380;9.820;2022-07-23T02:21:33;14.38;;;7.72;;
31786;SDS011;18356;52.380;9.820;2022-07-23T02:23:59;12.77;;;7.78;;
31786;SDS011;18356;52.380;9.820;2022-07-23T02:26:25;11.48;;;8.02;;
31786;SDS011;18356;52.380;9.820;2022-07-23T02:28:51;14.65;;;9.15;;
31786;SDS011;18356;52.380;9.820;2022-07-23T02:31:18;15.85;;;8.98;;
31786;SDS011;18356;52.380;9.820;2022-07-23T02:33:44;13.95;;;9.15;;
31786;SDS011;18356;52.380;9.820;2022-07-23T02:36:10;12.95;;;8.90;;
31786;SDS011;18356;52.380;9.820;2022-07-23T02:38:36;18.45;;;10.07;;
31786;SDS011;18356;52.380;9.820;2022-07-23T02:41:03;16.45;;;10.55;;
31786;SDS011;18356;52.380;9.820;2022-07-23T02:43:29;19.45;;;9.82;;
31786;SDS011;18356;52.380;9.820;2022-07-23T02:45:55;16.05;;;9.00;;
31786;SDS011;18356;52.380;9.820;2022-07-23T02:48:21;15.60;;;9.32;;
31786;SDS011;18356;52.380;9.820;2022-07-23T02:50:47;15.38;;;9.75;;
31786;SDS011;18356;52.380;9.820;2022-07-23T02:53:14;16.67;;;9.50;;
31786;SDS011;18356;52.380;9.820;2022-07-23T02:55:40;16.13;;;9.27;;
31786;SDS011;18356;52.380;9.820;2022-07-23T02:58:06;14.43;;;9.80;;
31786;SDS011;18356;52.380;9.820;2022-07-23T03:00:35;12.55;;;9.05;;
31786;SDS011;18356;52.380;9.820;2022-07-23T03:03:01;17.60;;;9.75;;
31786;SDS011;18356;52.380;9.820;2022-07-23T03:05:28;14.63;;;9.45;;
31786;SDS011;18356;52.380;9.820;2022-07-23T03:07:54;15.05;;;8.82;;
31786;SDS011;18356;52.380;9.820;2022-07-23T03:10:20;13.88;;;8.93;;
31786;SDS011;18356;52.380;9.820;2022-07-23T03:12:47;13.90;;;8.43;;
31786;SDS011;18356;52.380;9.820;2022-07-23T03:15:16;14.25;;;8.40;;
31786;SDS011;18356;52.380;9.820;2022-07-23T03:17:42;11.82;;;8.27;;
31786;SDS011;18356;52.380;9.820;2022-07-23T03:20:08;13.00;;;8.27;;
31786;SDS011;18356;52.380;9.820;2022-07-23T03:22:40;13.40;;;7.47;;
31786;SDS011;18356;52.380;9.820;2022-07-23T03:25:07;12.75;;;8.13;;
31786;SDS011;18356;52.380;9.820;2022-07-23T03:27:37;15.00;;;9.07;;
31786;SDS011;18356;52.380;9.820;2022-07-23T03:30:04;13.63;;;8.68;;
31786;SDS011;18356;52.380;9.820;2022-07-23T03:32:30;13.77;;;9.40;;
31786;SDS011;18356;52.380;9.820;2022-07-23T03:35:00;12.93;;;9.02;;
31786;SDS011;18356;52.380;9.820;2022-07-23T03:37:26;15.30;;;8.80;;
31786;SDS011;18356;52.380;9.820;2022-07-23T03:39:55;12.45;;;8.05;;
31786;SDS011;18356;52.380;9.820;2022-07-23T03:42:24;14.07;;;8.82;;
31786;SDS011;18356;52.380;9.820;2022-07-23T03:44:50;15.90;;;8.60;;
31786;SDS011;18356;52.380;9.820;2022-07-23T03:47:16;16.50;;;8.85;;
31786;SDS011;18356;52.380;9.820;2022-07-23T03:49:46;15.20;;;8.60;;
31786;SDS011;18356;52.380;9.820;2022-07-23T03:52:12;15.30;;;9.48;;
31786;SDS011;18356;52.380;9.820;2022-07-23T03:54:39;15.82;;;9.27;;
31786;SDS011;18356;52.380;9.820;2022-07-23T03:57:05;16.85;;;8.85;;
31786;SDS011;18356;52.380;9.820;2022-07-23T03:59:34;13.63;;;9.10;;
31786;SDS011;18356;52.380;9.820;2022-07-23T04:02:03;16.67;;;8.80;;
31786;SDS011;18356;52.380;9.820;2022-07-23T04:04:30;15.48;;;10.35;;
31786;SDS011;18356;52.380;9.820;2022-07-23T04:06:59;13.98;;;8.93;;
31786;SDS011;18356;52.380;9.820;2022-07-23T04:09:26;15.02;;;9.15;;
31786;SDS011;18356;52.380;9.820;2022-07-23T04:11:52;20.30;;;9.77;;
31786;SDS011;18356;52.380;9.820;2022-07-23T04:14:18;16.40;;;9.70;;
31786;SDS011;18356;52.380;9.820;2022-07-23T04:16:47;17.50;;;9.32;;
31786;SDS011;18356;52.380;9.820;2022-07-23T04:19:14;14.50;;;9.52;;
31786;SDS011;18356;52.380;9.820;2022-07-23T04:21:40;23.88;;;10.00;;
31786;SDS011;18356;52.380;9.820;2022-07-23T04:24:09;15.30;;;9.52;;
31786;SDS011;18356;52.380;9.820;2022-07-23T04:26:38;16.75;;;10.43;;
31786;SDS011;18356;52.380;9.820;2022-07-23T04:29:04;18.50;;;9.90;;
31786;SDS011;18356;52.380;9.820;2022-07-23T04:31:31;12.73;;;9.95;;
31786;SDS011;18356;52.380;9.820;2022-07-23T04:33:57;18.77;;;9.90;;
31786;SDS011;18356;52.380;9.820;2022-07-23T04:36:24;16.48;;;9.90;;
31786;SDS011;18356;52.380;9.820;2022-07-23T04:38:50;14.73;;;9.60;;
31786;SDS011;18356;52.380;9.820;2022-07-23T04:41:16;15.93;;;10.10;;
31786;SDS011;18356;52.380;9.820;2022-07-23T04:43:45;14.63;;;9.50;;
31786;SDS011;18356;52.380;9.820;2022-07-23T04:46:11;17.23;;;9.55;;
31786;SDS011;18356;52.380;9.820;2022-07-23T04:48:39;17.50;;;9.93;;
31786;SDS011;18356;52.380;9.820;2022-07-23T04:51:07;14.25;;;9.18;;
31786;SDS011;18356;52.380;9.820;2022-07-23T04:53:33;20.25;;;9.82;;
31786;SDS011;18356;52.380;9.820;2022-07-23T04:55:59;13.40;;;9.48;;
31786;SDS011;18356;52.380;9.820;2022-07-23T04:58:28;12.73;;;8.73;;
31786;SDS011;18356;52.380;9.820;2022-07-23T05:00:54;17.40;;;9.85;;
31786;SDS011;18356;52.380;9.820;2022-07-23T05:03:22;16.38;;;9.88;;
31786;SDS011;18356;52.380;9.820;2022-07-23T05:05:54;14.02;;;10.07;;
31786;SDS011;18356;52.380;9.820;2022-07-23T05:08:27;16.10;;;9.73;;
31786;SDS011;18356;52.380;9.820;2022-07-23T05:10:53;21.05;;;10.50;;
31786;SDS011;18356;52.380;9.820;2022-07-23T05:13:19;15.25;;;10.45;;
31786;SDS011;18356;52.380;9.820;2022-07-23T05:15:46;19.20;;;10.80;;
31786;SDS011;18356;52.380;9.820;2022-07-23T05:18:15;15.68;;;10.15;;
31786;SDS011;18356;52.380;9.820;2022-07-23T05:20:42;16.98;;;10.10;;
31786;SDS011;18356;52.380;9.820;2022-07-23T05:23:08;18.45;;;9.50;;
31786;SDS011;18356;52.380;9.820;2022-07-23T05:25:35;16.60;;;10.43;;
31786;SDS011;18356;52.380;9.820;2022-07-23T05:28:04;14.00;;;9.35;;
31786;SDS011;18356;52.380;9.820;2022-07-23T05:30:30;16.63;;;9.63;;
31786;SDS011;18356;52.380;9.820;2022-07-23T05:32:56;18.50;;;9.40;;
31786;SDS011;18356;52.380;9.820;2022-07-23T05:35:22;16.02;;;9.80;;
31786;SDS011;18356;52.380;9.820;2022-07-23T05:37:49;14.25;;;9.52;;
31786;SDS011;18356;52.380;9.820;2022-07-23T05:40:17;17.52;;;9.25;;
31786;SDS011;18356;52.380;9.820;2022-07-23T05:42:44;15.77;;;9.75;;
31786;SDS011;18356;52.380;9.820;2022-07-23T05:45:10;15.32;;;10.00;;
31786;SDS011;18356;52.380;9.820;2022-07-23T05:47:40;15.73;;;9.35;;
31786;SDS011;18356;52.380;9.820;2022-07-23T05:50:07;14.27;;;9.75;;
31786;SDS011;18356;52.380;9.820;2022-07-23T05:52:34;15.63;;;8.95;;
31786;SDS011;18356;52.380;9.820;2022-07-23T05:55:00;14.48;;;9.00;;
31786;SDS011;18356;52.380;9.820;2022-07-23T05:57:26;15.93;;;8.82;;
31786;SDS011;18356;52.380;9.820;2022-07-23T05:59:52;13.52;;;9.05;;
31786;SDS011;18356;52.380;9.820;2022-07-23T06:02:21;14.02;;;8.00;;
31786;SDS011;18356;52.380;9.820;2022-07-23T06:04:50;15.00;;;8.93;;
31786;SDS011;18356;52.380;9.820;2022-07-23T06:07:17;13.85;;;7.65;;
31786;SDS011;18356;52.380;9.820;2022-07-23T06:09:46;14.43;;;7.93;;
31786;SDS011;18356;52.380;9.820;2022-07-23T06:12:14;13.38;;;8.20;;
31786;SDS011;18356;52.380;9.820;2022-07-23T06:14:40;11.65;;;7.93;;
31786;SDS011;18356;52.380;9.820;2022-07-23T06:17:07;16.15;;;7.63;;
31786;SDS011;18356;52.380;9.820;2022-07-23T06:19:34;11.20;;;7.30;;
31786;SDS011;18356;52.380;9.820;2022-07-23T06:22:01;12.07;;;7.25;;
31786;SDS011;18356;52.380;9.820;2022-07-23T06:24:30;16.42;;;7.55;;
31786;SDS011;18356;52.380;9.820;2022-07-23T06:26:59;10.40;;;6.88;;
31786;SDS011;18356;52.380;9.820;2022-07-23T06:29:28;15.18;;;7.88;;
31786;SDS011;18356;52.380;9.820;2022-07-23T06:31:54;13.93;;;7.75;;
31786;SDS011;18356;52.380;9.820;2022-07-23T06:34:24;12.30;;;7.40;;
31786;SDS011;18356;52.380;9.820;2022-07-23T06:36:50;15.07;;;7.15;;
31786;SDS011;18356;52.380;9.820;2022-07-23T06:39:19;15.07;;;7.15;;
31786;SDS011;18356;52.380;9.820;2022-07-23T06:41:45;9.45;;;6.57;;
31786;SDS011;18356;52.380;9.820;2022-07-23T06:44:11;12.07;;;5.88;;
31786;SDS011;18356;52.380;9.820;2022-07-23T06:46:37;10.32;;;5.10;;
31786;SDS011;18356;52.380;9.820;2022-07-23T06:49:04;12.18;;;6.32;;
31786;SDS011;18356;52.380;9.820;2022-07-23T06:51:30;19.17;;;6.00;;
31786;SDS011;18356;52.380;9.820;2022-07-23T06:53:56;10.32;;;4.35;;
31786;SDS011;18356;52.380;9.820;2022-07-23T06:56:23;10.13;;;5.43;;
31786;SDS011;18356;52.380;9.820;2022-07-23T06:58:49;10.60;;;5.40;;
31786;SDS011;18356;52.380;9.820;2022-07-23T07:01:22;10.73;;;5.60;;
31786;SDS011;18356;52.380;9.820;2022-07-23T07:03:48;17.42;;;6.68;;
31786;SDS011;18356;52.380;9.820;2022-07-23T07:06:14;13.73;;;5.68;;
31786;SDS011;18356;52.380;9.820;2022-07-23T07:08:49;10.07;;;5.53;;
31786;SDS011;18356;52.380;9.820;2022-07-23T07:11:16;10.45;;;5.65;;
31786;SDS011;18356;52.380;9.820;2022-07-23T07:13:42;13.32;;;6.30;;
31786;SDS011;18356;52.380;9.820;2022-07-23T07:16:08;8.45;;;5.75;;
31786;SDS011;18356;52.380;9.820;2022-07-23T07:18:34;9.60;;;5.00;;
31786;SDS011;18356;52.380;9.820;2022-07-23T07:21:00;13.25;;;5.25;;
31786;SDS011;18356;52.380;9.820;2022-07-23T07:23:26;11.30;;;4.90;;
31786;SDS011;18356;52.380;9.820;2022-07-23T07:25:53;8.90;;;4.50;;
31786;SDS011;18356;52.380;9.820;2022-07-23T07:28:19;10.02;;;4.93;;
31786;SDS011;18356;52.380;9.820;2022-07-23T07:30:45;12.18;;;4.32;;
31786;SDS011;18356;52.380;9.820;2022-07-23T07:33:11;10.77;;;4.05;;
31786;SDS011;18356;52.380;9.820;2022-07-23T07:35:37;10.80;;;3.65;;
31786;SDS011;18356;52.380;9.820;2022-07-23T07:38:03;8.73;;;3.60;;
31786;SDS011;18356;52.380;9.820;2022-07-23T07:40:29;8.15;;;3.65;;
31786;SDS011;18356;52.380;9.820;2022-07-23T07:42:56;9.13;;;3.38;;
31786;SDS011;18356;52.380;9.820;2022-07-23T07:45:22;8.18;;;2.97;;
31786;SDS011;18356;52.380;9.820;2022-07-23T07:47:49;7.25;;;3.00;;
31786;SDS011;18356;52.380;9.820;2022-07-23T07:50:15;8.35;;;2.67;;
31786;SDS011;18356;52.380;9.820;2022-07-23T07:52:41;12.20;;;3.35;;
31786;SDS011;18356;52.380;9.820;2022-07-23T07:55:08;8.50;;;2.65;;
31786;SDS011;18356;52.380;9.820;2022-07-23T07:57:35;8.40;;;2.70;;
31786;SDS011;18356;52.380;9.820;2022-07-23T08:00:01;11.50;;;3.20;;
31786;SDS011;18356;52.380;9.820;2022-07-23T08:02:28;8.27;;;2.67;;
31786;SDS011;18356;52.380;9.820;2022-07-23T08:04:54;7.35;;;2.38;;
31786;SDS011;18356;52.380;9.820;2022-07-23T08:07:22;10.57;;;2.42;;
31786;SDS011;18356;52.380;9.820;2022-07-23T08:09:51;13.63;;;2.80;;
31786;SDS011;18356;52.380;9.820;2022-07-23T08:12:17;5.95;;;2.25;;
31786;SDS011;18356;52.380;9.820;2022-07-23T08:14:44;6.10;;;2.50;;
31786;SDS011;18356;52.380;9.820;2022-07-23T08:17:13;6.38;;;2.75;;
31786;SDS011;18356;52.380;9.820;2022-07-23T08:19:42;5.43;;;2.35;;
31786;SDS011;18356;52.380;9.820;2022-07-23T08:22:08;7.03;;;2.08;;
31786;SDS011;18356;52.380;9.820;2022-07-23T08:24:36;5.90;;;2.30;;
31786;SDS011;18356;52.380;9.820;2022-07-23T08:27:02;8.35;;;2.35;;
31786;SDS011;18356;52.380;9.820;2022-07-23T08:29:28;8.70;;;3.08;;
31786;SDS011;18356;52.380;9.820;2022-07-23T08:31:59;8.40;;;3.00;;
31786;SDS011;18356;52.380;9.820;2022-07-23T08:34:25;11.38;;;3.42;;
31786;SDS011;18356;52.380;9.820;2022-07-23T08:36:52;5.88;;;1.98;;
31786;SDS011;18356;52.380;9.820;2022-07-23T08:39:18;6.90;;;2.05;;
31786;SDS011;18356;52.380;9.820;2022-07-23T08:41:45;5.15;;;2.42;;
31786;SDS011;18356;52.380;9.820;2022-07-23T08:44:13;3.63;;;1.88;;
31786;SDS011;18356;52.380;9.820;2022-07-23T08:46:41;5.43;;;2.97;;
31786;SDS011;18356;52.380;9.820;2022-07-23T08:49:08;6.50;;;2.28;;
31786;SDS011;18356;52.380;9.820;2022-07-23T08:51:34;8.10;;;2.70;;
31786;SDS011;18356;52.380;9.820;2022-07-23T08:54:01;5.93;;;2.40;;
31786;SDS011;18356;52.380;9.820;2022-07-23T08:56:28;8.27;;;2.20;;
31786;SDS011;18356;52.380;9.820;2022-07-23T08:58:54;7.57;;;2.00;;
31786;SDS011;18356;52.380;9.820;2022-07-23T09:01:20;4.80;;;2.00;;
31786;SDS011;18356;52.380;9.820;2022-07-23T09:03:46;4.93;;;1.52;;
31786;SDS011;18356;52.380;9.820;2022-07-23T09:06:12;4.55;;;1.70;;
31786;SDS011;18356;52.380;9.820;2022-07-23T09:08:39;6.00;;;1.58;;
31786;SDS011;18356;52.380;9.820;2022-07-23T09:11:10;7.18;;;2.10;;
31786;SDS011;18356;52.380;9.820;2022-07-23T09:13:40;4.90;;;1.98;;
31786;SDS011;18356;52.380;9.820;2022-07-23T09:16:11;5.45;;;1.70;;
31786;SDS011;18356;52.380;9.820;2022-07-23T09:18:43;6.55;;;2.00;;
31786;SDS011;18356;52.380;9.820;2022-07-23T09:23:37;4.05;;;1.73;;
31786;SDS011;18356;52.380;9.820;2022-07-23T09:26:10;2.75;;;1.10;;
31786;SDS011;18356;52.380;9.820;2022-07-23T09:28:53;5.82;;;1.60;;
31786;SDS011;18356;52.380;9.820;2022-07-23T09:31:20;4.85;;;1.40;;
31786;SDS011;18356;52.380;9.820;2022-07-23T09:33:46;3.53;;;1.23;;
31786;SDS011;18356;52.380;9.820;2022-07-23T09:36:15;5.28;;;1.85;;
31786;SDS011;18356;52.380;9.820;2022-07-23T09:38:52;3.58;;;1.50;;
31786;SDS011;18356;52.380;9.820;2022-07-23T09:41:19;2.92;;;1.10;;
31786;SDS011;18356;52.380;9.820;2022-07-23T09:43:45;5.65;;;1.38;;
31786;SDS011;18356;52.380;9.820;2022-07-23T09:46:18;4.50;;;1.52;;
31786;SDS011;18356;52.380;9.820;2022-07-23T09:48:45;6.10;;;1.58;;
31786;SDS011;18356;52.380;9.820;2022-07-23T09:51:11;6.38;;;1.40;;
31786;SDS011;18356;52.380;9.820;2022-07-23T09:53:41;4.75;;;1.40;;
31786;SDS011;18356;52.380;9.820;2022-07-23T09:56:08;4.85;;;1.60;;
31786;SDS011;18356;52.380;9.820;2022-07-23T09:58:35;4.65;;;1.65;;
31786;SDS011;18356;52.380;9.820;2022-07-23T10:01:09;4.80;;;1.50;;
31786;SDS011;18356;52.380;9.820;2022-07-23T10:03:39;5.43;;;1.40;;
31786;SDS011;18356;52.380;9.820;2022-07-23T10:06:07;5.45;;;1.70;;
31786;SDS011;18356;52.380;9.820;2022-07-23T10:08:33;4.10;;;1.48;;
31786;SDS011;18356;52.380;9.820;2022-07-23T10:11:00;6.32;;;1.50;;
31786;SDS011;18356;52.380;9.820;2022-07-23T10:13:28;5.20;;;1.70;;
31786;SDS011;18356;52.380;9.820;2022-07-23T10:16:13;5.05;;;1.60;;
31786;SDS011;18356;52.380;9.820;2022-07-23T10:18:39;5.65;;;1.55;;
31786;SDS011;18356;52.380;9.820;2022-07-23T10:21:07;4.60;;;1.40;;
31786;SDS011;18356;52.380;9.820;2022-07-23T10:26:11;3.22;;;1.25;;
31786;SDS011;18356;52.380;9.820;2022-07-23T10:31:20;3.85;;;1.20;;
31786;SDS011;18356;52.380;9.820;2022-07-23T10:36:42;4.65;;;1.40;;
31786;SDS011;18356;52.380;9.820;2022-07-23T10:39:15;5.20;;;1.30;;
31786;SDS011;18356;52.380;9.820;2022-07-23T10:41:46;6.28;;;1.70;;
31786;SDS011;18356;52.380;9.820;2022-07-23T10:44:16;5.47;;;1.40;;
31786;SDS011;18356;52.380;9.820;2022-07-23T10:46:59;4.43;;;1.30;;
31786;SDS011;18356;52.380;9.820;2022-07-23T10:49:44;4.90;;;1.42;;
31786;SDS011;18356;52.380;9.820;2022-07-23T10:54:42;4.80;;;1.48;;
31786;SDS011;18356;52.380;9.820;2022-07-23T10:57:09;5.95;;;1.33;;
31786;SDS011;18356;52.380;9.820;2022-07-23T11:00:22;3.03;;;1.17;;
31786;SDS011;18356;52.380;9.820;2022-07-23T11:02:23;6.85;;;1.60;;
31786;SDS011;18356;52.380;9.820;2022-07-23T11:04:50;4.07;;;1.30;;
31786;SDS011;18356;52.380;9.820;2022-07-23T11:07:16;5.30;;;1.17;;
31786;SDS011;18356;52.380;9.820;2022-07-23T11:09:43;5.03;;;1.35;;
31786;SDS011;18356;52.380;9.820;2022-07-23T11:17:25;4.45;;;1.40;;
31786;SDS011;18356;52.380;9.820;2022-07-23T11:25:11;3.40;;;1.20;;
31786;SDS011;18356;52.380;9.820;2022-07-23T11:27:44;3.38;;;1.27;;
31786;SDS011;18356;52.380;9.820;2022-07-23T11:30:55;4.50;;;1.20;;
31786;SDS011;18356;52.380;9.820;2022-07-23T11:35:42;4.03;;;1.00;;
31786;SDS011;18356;52.380;9.820;2022-07-23T11:38:14;4.03;;;1.20;;
31786;SDS011;18356;52.380;9.820;2022-07-23T11:40:41;6.00;;;1.20;;
31786;SDS011;18356;52.380;9.820;2022-07-23T11:43:09;4.20;;;1.20;;
31786;SDS011;18356;52.380;9.820;2022-07-23T11:45:46;3.40;;;1.23;;
31786;SDS011;18356;52.380;9.820;2022-07-23T11:48:20;2.40;;;1.20;;
31786;SDS011;18356;52.380;9.820;2022-07-23T11:50:49;4.95;;;1.27;;
31786;SDS011;18356;52.380;9.820;2022-07-23T11:53:29;4.85;;;1.10;;
31786;SDS011;18356;52.380;9.820;2022-07-23T11:56:29;6.20;;;1.25;;
31786;SDS011;18356;52.380;9.820;2022-07-23T11:58:55;3.53;;;1.15;;
31786;SDS011;18356;52.380;9.820;2022-07-23T12:01:22;3.60;;;0.98;;
31786;SDS011;18356;52.380;9.820;2022-07-23T12:03:57;5.50;;;1.05;;
31786;SDS011;18356;52.380;9.820;2022-07-23T12:06:23;3.15;;;1.42;;
31786;SDS011;18356;52.380;9.820;2022-07-23T12:08:50;1.92;;;0.90;;
31786;SDS011;18356;52.380;9.820;2022-07-23T12:11:20;3.33;;;1.00;;
31786;SDS011;18356;52.380;9.820;2022-07-23T12:13:55;3.30;;;0.90;;
31786;SDS011;18356;52.380;9.820;2022-07-23T12:16:24;2.90;;;0.88;;
31786;SDS011;18356;52.380;9.820;2022-07-23T12:18:50;4.22;;;1.02;;
31786;SDS011;18356;52.380;9.820;2022-07-23T12:21:17;2.55;;;0.80;;
31786;SDS011;18356;52.380;9.820;2022-07-23T12:23:43;3.53;;;0.80;;
31786;SDS011;18356;52.380;9.820;2022-07-23T12:26:16;4.88;;;0.98;;
31786;SDS011;18356;52.380;9.820;2022-07-23T12:28:43;7.68;;;0.90;;
31786;SDS011;18356;52.380;9.820;2022-07-23T12:31:18;2.20;;;0.88;;
31786;SDS011;18356;52.380;9.820;2022-07-23T12:33:57;2.10;;;0.73;;
31786;SDS011;18356;52.380;9.820;2022-07-23T12:36:36;6.10;;;1.50;;
31786;SDS011;18356;52.380;9.820;2022-07-23T12:39:04;3.88;;;0.90;;
31786;SDS011;18356;52.380;9.820;2022-07-23T12:41:50;5.75;;;0.80;;
31786;SDS011;18356;52.380;9.820;2022-07-23T12:44:16;3.55;;;0.88;;
31786;SDS011;18356;52.380;9.820;2022-07-23T12:46:49;4.32;;;0.80;;
31786;SDS011;18356;52.380;9.820;2022-07-23T12:49:24;3.83;;;1.90;;
31786;SDS011;18356;52.380;9.820;2022-07-23T12:51:51;2.78;;;0.88;;
31786;SDS011;18356;52.380;9.820;2022-07-23T12:54:26;2.88;;;0.80;;
31786;SDS011;18356;52.380;9.820;2022-07-23T12:56:53;3.25;;;0.75;;
31786;SDS011;18356;52.380;9.820;2022-07-23T12:59:20;3.28;;;0.70;;
31786;SDS011;18356;52.380;9.820;2022-07-23T13:01:56;2.25;;;0.80;;
31786;SDS011;18356;52.380;9.820;2022-07-23T13:04:26;4.97;;;0.95;;
31786;SDS011;18356;52.380;9.820;2022-07-23T13:06:54;3.95;;;0.80;;
31786;SDS011;18356;52.380;9.820;2022-07-23T13:09:26;2.88;;;0.70;;
31786;SDS011;18356;52.380;9.820;2022-07-23T13:11:53;2.83;;;0.85;;
31786;SDS011;18356;52.380;9.820;2022-07-23T13:14:20;3.38;;;0.80;;
31786;SDS011;18356;52.380;9.820;2022-07-23T13:16:47;3.58;;;0.70;;
31786;SDS011;18356;52.380;9.820;2022-07-23T13:19:14;7.68;;;1.00;;
31786;SDS011;18356;52.380;9.820;2022-07-23T13:21:43;5.22;;;0.70;;
31786;SDS011;18356;52.380;9.820;2022-07-23T13:24:10;1.88;;;0.50;;
31786;SDS011;18356;52.380;9.820;2022-07-23T13:26:39;2.40;;;0.70;;
31786;SDS011;18356;52.380;9.820;2022-07-23T13:29:05;4.47;;;0.52;;
31786;SDS011;18356;52.380;9.820;2022-07-23T13:31:32;2.03;;;0.68;;
31786;SDS011;18356;52.380;9.820;2022-07-23T13:33:58;7.15;;;0.70;;
31786;SDS011;18356;52.380;9.820;2022-07-23T13:36:31;6.55;;;0.90;;
31786;SDS011;18356;52.380;9.820;2022-07-23T13:38:57;16.13;;;1.52;;
31786;SDS011;18356;52.380;9.820;2022-07-23T13:41:23;1.58;;;0.75;;
31786;SDS011;18356;52.380;9.820;2022-07-23T13:43:49;4.03;;;0.73;;
31786;SDS011;18356;52.380;9.820;2022-07-23T13:46:16;2.42;;;0.52;;
31786;SDS011;18356;52.380;9.820;2022-07-23T13:48:42;1.75;;;0.68;;
31786;SDS011;18356;52.380;9.820;2022-07-23T13:51:08;7.10;;;1.13;;
31786;SDS011;18356;52.380;9.820;2022-07-23T13:53:34;2.85;;;0.60;;
31786;SDS011;18356;52.380;9.820;2022-07-23T13:56:00;3.63;;;0.77;;
31786;SDS011;18356;52.380;9.820;2022-07-23T13:58:26;2.65;;;0.60;;
31786;SDS011;18356;52.380;9.820;2022-07-23T14:00:56;1.98;;;0.77;;
31786;SDS011;18356;52.380;9.820;2022-07-23T14:03:25;1.65;;;0.50;;
31786;SDS011;18356;52.380;9.820;2022-07-23T14:05:51;1.90;;;0.50;;
31786;SDS011;18356;52.380;9.820;2022-07-23T14:08:18;6.45;;;0.82;;
31786;SDS011;18356;52.380;9.820;2022-07-23T14:10:44;4.55;;;0.63;;
31786;SDS011;18356;52.380;9.820;2022-07-23T14:13:10;3.42;;;0.60;;
31786;SDS011;18356;52.380;9.820;2022-07-23T14:15:37;6.80;;;0.60;;
31786;SDS011;18356;52.380;9.820;2022-07-23T14:18:06;1.90;;;0.57;;
31786;SDS011;18356;52.380;9.820;2022-07-23T14:20:33;4.03;;;0.68;;
31786;SDS011;18356;52.380;9.820;2022-07-23T14:23:01;2.42;;;0.60;;
31786;SDS011;18356;52.380;9.820;2022-07-23T14:25:30;2.47;;;0.52;;
31786;SDS011;18356;52.380;9.820;2022-07-23T14:27:57;2.65;;;0.63;;
31786;SDS011;18356;52.380;9.820;2022-07-23T14:30:26;3.85;;;0.73;;
31786;SDS011;18356;52.380;9.820;2022-07-23T14:32:53;5.07;;;0.50;;
31786;SDS011;18356;52.380;9.820;2022-07-23T14:35:19;2.28;;;0.68;;
31786;SDS011;18356;52.380;9.820;2022-07-23T14:37:51;1.13;;;0.50;;
31786;SDS011;18356;52.380;9.820;2022-07-23T14:40:21;6.90;;;0.80;;
31786;SDS011;18356;52.380;9.820;2022-07-23T14:42:47;3.08;;;0.50;;
31786;SDS011;18356;52.380;9.820;2022-07-23T14:45:14;1.83;;;0.60;;
31786;SDS011;18356;52.380;9.820;2022-07-23T14:47:40;4.50;;;0.60;;
31786;SDS011;18356;52.380;9.820;2022-07-23T14:50:07;2.20;;;0.50;;
31786;SDS011;18356;52.380;9.820;2022-07-23T14:52:33;4.72;;;0.77;;
31786;SDS011;18356;52.380;9.820;2022-07-23T14:55:00;5.82;;;0.85;;
31786;SDS011;18356;52.380;9.820;2022-07-23T14:57:26;1.83;;;0.50;;
31786;SDS011;18356;52.380;9.820;2022-07-23T14:59:56;2.30;;;0.70;;
31786;SDS011;18356;52.380;9.820;2022-07-23T15:02:23;2.78;;;0.70;;
31786;SDS011;18356;52.380;9.820;2022-07-23T15:04:49;1.73;;;0.50;;
31786;SDS011;18356;52.380;9.820;2022-07-23T15:07:16;2.30;;;0.75;;
31786;SDS011;18356;52.380;9.820;2022-07-23T15:09:42;3.03;;;0.50;;
31786;SDS011;18356;52.380;9.820;2022-07-23T15:12:09;1.40;;;0.60;;